Time;durP1;ratioP1;P1;durP2;ratioP2;P2;SDS_P1;SDS_P2;PMS_P1;PMS_P2;Temp;Humidity;BMP_temperature;BMP_pressure;BME280_temperature;BME280_humidity;BME280_pressure;Samples;Min_cycle;Max_cycle;Signal;HPM_P1;HPM_P2
2021/12/09 00:01:07;;;;;;;48.58;28.80;;;;;;;;;;5059382;28;20430;-90
2021/12/09 00:03:39;;;;;;;50.97;28.65;;;;;;;;;;5041618;28;20052;-90
2021/12/09 00:06:05;;;;;;;50.13;28.83;;;;;;;;;;5041435;28;20029;-91
2021/12/09 00:08:32;;;;;;;48.88;28.35;;;;;;;;;;5059007;28;20079;-90
2021/12/09 00:11:02;;;;;;;52.50;29.38;;;;;;;;;;5059194;28;20025;-87
2021/12/09 00:13:29;;;;;;;53.08;28.20;;;;;;;;;;5059056;28;20021;-87
2021/12/09 00:15:57;;;;;;;51.28;27.75;;;;;;;;;;5041049;28;20037;-88
2021/12/09 00:18:23;;;;;;;49.78;27.65;;;;;;;;;;5059116;28;20052;-88
2021/12/09 00:20:49;;;;;;;54.75;28.42;;;;;;;;;;5059135;28;20057;-87
2021/12/09 00:23:16;;;;;;;49.90;27.40;;;;;;;;;;5058698;28;20017;-87
2021/12/09 00:25:42;;;;;;;48.40;26.38;;;;;;;;;;5041201;28;20142;-86
2021/12/09 00:28:08;;;;;;;48.70;27.17;;;;;;;;;;5041215;28;20036;-87
2021/12/09 00:30:35;;;;;;;50.88;27.23;;;;;;;;;;5041081;28;20021;-86
2021/12/09 00:33:03;;;;;;;50.22;27.10;;;;;;;;;;5058762;28;20021;-88
2021/12/09 00:35:34;;;;;;;50.35;27.38;;;;;;;;;;5040628;28;20043;-87
2021/12/09 00:38:07;;;;;;;49.08;25.83;;;;;;;;;;5058306;28;20020;-87
2021/12/09 00:40:34;;;;;;;45.92;25.55;;;;;;;;;;5058657;28;20107;-87
2021/12/09 00:43:00;;;;;;;46.58;25.63;;;;;;;;;;5058247;28;20057;-87
2021/12/09 00:45:26;;;;;;;44.10;26.25;;;;;;;;;;5040695;28;20116;-87
2021/12/09 00:47:53;;;;;;;47.85;25.95;;;;;;;;;;5040653;28;20417;-88
2021/12/09 00:50:20;;;;;;;45.70;25.02;;;;;;;;;;5040344;28;20080;-87
2021/12/09 00:52:46;;;;;;;44.80;25.27;;;;;;;;;;5058104;28;20025;-89
2021/12/09 00:55:13;;;;;;;46.67;25.80;;;;;;;;;;5040625;28;20024;-90
2021/12/09 00:57:40;;;;;;;49.22;26.02;;;;;;;;;;5057800;28;20079;-89
2021/12/09 01:00:08;;;;;;;44.20;25.23;;;;;;;;;;5058391;28;20029;-90
2021/12/09 01:09:02;;;;;;;45.88;25.60;;;;;;;;;;5058200;28;20043;-88
2021/12/09 01:11:28;;;;;;;43.58;24.95;;;;;;;;;;5057713;28;20025;-88
2021/12/09 01:13:54;;;;;;;44.83;25.25;;;;;;;;;;5057899;28;20111;-88
2021/12/09 01:16:40;;;;;;;41.33;24.17;;;;;;;;;;5058201;28;20021;-88
2021/12/09 01:19:07;;;;;;;45.15;24.98;;;;;;;;;;5057881;28;20021;-88
2021/12/09 01:21:33;;;;;;;41.60;23.08;;;;;;;;;;5040194;28;20033;-88
2021/12/09 01:23:59;;;;;;;42.53;24.25;;;;;;;;;;5057925;28;20025;-87
2021/12/09 01:26:27;;;;;;;41.38;23.00;;;;;;;;;;5058177;28;20100;-87
2021/12/09 01:28:58;;;;;;;40.95;24.23;;;;;;;;;;5058020;28;20036;-88
2021/12/09 01:34:27;;;;;;;36.33;21.50;;;;;;;;;;5057788;28;20099;-88
2021/12/09 01:36:54;;;;;;;40.25;22.27;;;;;;;;;;5057695;28;20044;-88
2021/12/09 01:39:21;;;;;;;39.53;22.38;;;;;;;;;;5057742;28;20048;-87
2021/12/09 01:41:47;;;;;;;41.70;22.98;;;;;;;;;;5057421;28;20069;-88
2021/12/09 01:44:14;;;;;;;39.30;21.75;;;;;;;;;;5057775;28;20104;-87
2021/12/09 01:49:43;;;;;;;34.25;20.00;;;;;;;;;;5057868;28;20363;-88
2021/12/09 01:52:09;;;;;;;36.33;21.10;;;;;;;;;;5057569;28;20029;-88
2021/12/09 01:54:36;;;;;;;37.17;20.40;;;;;;;;;;5057499;28;20025;-88
2021/12/09 01:57:02;;;;;;;33.45;19.80;;;;;;;;;;5057365;28;20403;-88
2021/12/09 01:59:28;;;;;;;35.20;19.80;;;;;;;;;;5057621;28;20071;-88
2021/12/09 02:01:54;;;;;;;35.38;20.60;;;;;;;;;;5039799;28;20037;-88
2021/12/09 02:04:20;;;;;;;35.05;20.40;;;;;;;;;;5039148;28;20123;-88
2021/12/09 02:06:46;;;;;;;32.85;19.48;;;;;;;;;;5039285;28;20045;-86
2021/12/09 02:09:13;;;;;;;33.65;19.88;;;;;;;;;;5057505;28;20323;-87
2021/12/09 02:11:40;;;;;;;31.33;19.02;;;;;;;;;;5057520;28;20036;-88
2021/12/09 02:14:07;;;;;;;35.47;19.80;;;;;;;;;;5059105;28;20021;-88
2021/12/09 02:16:34;;;;;;;30.30;18.52;;;;;;;;;;5061088;28;20433;-88
2021/12/09 02:19:01;;;;;;;31.88;18.85;;;;;;;;;;5061427;28;20300;-88
2021/12/09 02:21:28;;;;;;;31.45;19.38;;;;;;;;;;5043427;28;20411;-88
2021/12/09 02:23:56;;;;;;;30.60;19.27;;;;;;;;;;5061166;28;20060;-88
2021/12/09 02:26:24;;;;;;;31.98;18.65;;;;;;;;;;5060580;28;20021;-89
2021/12/09 02:28:51;;;;;;;28.92;18.27;;;;;;;;;;5043294;28;20035;-88
2021/12/09 02:31:17;;;;;;;31.08;18.27;;;;;;;;;;5060787;28;20133;-89
2021/12/09 02:33:43;;;;;;;32.10;17.98;;;;;;;;;;5061056;28;20096;-89
2021/12/09 02:36:09;;;;;;;30.10;18.33;;;;;;;;;;5060924;28;20104;-89
2021/12/09 02:38:42;;;;;;;27.92;17.05;;;;;;;;;;5061153;28;20021;-89
2021/12/09 02:41:10;;;;;;;27.65;16.92;;;;;;;;;;5060865;28;20025;-89
2021/12/09 02:43:37;;;;;;;28.98;17.23;;;;;;;;;;5043203;28;20052;-89
2021/12/09 02:46:03;;;;;;;28.40;17.40;;;;;;;;;;5042700;28;20431;-90
2021/12/09 02:48:29;;;;;;;31.67;17.00;;;;;;;;;;5060923;28;20232;-89
2021/12/09 02:50:55;;;;;;;30.35;18.38;;;;;;;;;;5060876;28;20020;-90
2021/12/09 02:53:22;;;;;;;29.27;17.67;;;;;;;;;;5060527;28;20432;-90
2021/12/09 02:55:48;;;;;;;26.42;15.82;;;;;;;;;;5060157;28;20320;-88
2021/12/09 02:58:14;;;;;;;26.35;16.65;;;;;;;;;;5043035;28;20404;-88
2021/12/09 03:00:59;;;;;;;27.63;15.82;;;;;;;;;;5060362;28;20021;-88
2021/12/09 03:03:25;;;;;;;27.40;16.33;;;;;;;;;;5060355;28;20033;-87
2021/12/09 03:05:53;;;;;;;32.95;18.20;;;;;;;;;;5060087;28;20032;-87
2021/12/09 03:08:24;;;;;;;25.40;15.77;;;;;;;;;;5060274;28;20033;-88
2021/12/09 03:10:50;;;;;;;25.23;15.70;;;;;;;;;;5060020;28;20144;-88
2021/12/09 03:13:17;;;;;;;27.48;15.40;;;;;;;;;;5060519;28;20033;-88
2021/12/09 03:15:43;;;;;;;25.52;15.20;;;;;;;;;;5060360;28;20469;-88
2021/12/09 03:18:28;;;;;;;26.33;15.43;;;;;;;;;;5060650;28;20032;-88
2021/12/09 03:20:55;;;;;;;24.77;14.77;;;;;;;;;;5060090;28;20021;-88
2021/12/09 03:23:22;;;;;;;24.98;15.48;;;;;;;;;;5059809;28;20469;-88
2021/12/09 03:25:49;;;;;;;24.58;15.25;;;;;;;;;;5058649;28;20110;-88
2021/12/09 03:28:15;;;;;;;25.83;16.70;;;;;;;;;;5059987;28;20469;-88
2021/12/09 03:30:41;;;;;;;25.92;15.93;;;;;;;;;;5041501;28;20038;-88
2021/12/09 03:36:11;;;;;;;22.33;14.05;;;;;;;;;;5059465;28;20091;-88
2021/12/09 03:38:37;;;;;;;27.48;16.15;;;;;;;;;;5042310;28;20040;-88
2021/12/09 03:41:04;;;;;;;26.75;15.57;;;;;;;;;;5059733;28;20021;-88
2021/12/09 03:43:32;;;;;;;29.48;15.25;;;;;;;;;;5059608;28;20104;-88
2021/12/09 03:45:58;;;;;;;28.25;15.35;;;;;;;;;;5059933;28;20407;-88
2021/12/09 03:48:24;;;;;;;28.27;14.90;;;;;;;;;;5059343;28;20071;-88
2021/12/09 03:50:51;;;;;;;25.40;15.02;;;;;;;;;;5059377;28;20108;-88
2021/12/09 03:53:17;;;;;;;24.75;14.73;;;;;;;;;;5059156;28;20028;-89
2021/12/09 03:55:43;;;;;;;27.08;15.32;;;;;;;;;;5059734;28;20116;-88
2021/12/09 03:58:09;;;;;;;23.95;14.30;;;;;;;;;;5059745;28;20021;-88
2021/12/09 04:00:35;;;;;;;21.23;12.77;;;;;;;;;;5059229;28;20027;-89
2021/12/09 04:06:05;;;;;;;22.52;12.98;;;;;;;;;;5059256;28;20079;-88
2021/12/09 04:08:31;;;;;;;21.48;13.50;;;;;;;;;;5059287;28;20036;-88
2021/12/09 04:10:57;;;;;;;21.40;12.70;;;;;;;;;;5059333;28;20128;-89
2021/12/09 04:13:23;;;;;;;21.08;14.00;;;;;;;;;;5059353;28;20025;-88
2021/12/09 04:15:49;;;;;;;24.30;14.15;;;;;;;;;;5059315;28;20041;-88
2021/12/09 04:18:15;;;;;;;21.23;13.38;;;;;;;;;;5041021;28;20044;-87
2021/12/09 04:20:42;;;;;;;20.73;13.23;;;;;;;;;;5058995;28;20310;-87
2021/12/09 04:23:08;;;;;;;19.77;12.90;;;;;;;;;;5041306;28;20323;-88
2021/12/09 04:25:35;;;;;;;22.20;12.43;;;;;;;;;;5041300;28;20032;-88
2021/12/09 04:28:01;;;;;;;19.00;13.25;;;;;;;;;;5041303;28;20031;-88
2021/12/09 04:30:29;;;;;;;24.25;13.73;;;;;;;;;;5058488;28;20033;-87
2021/12/09 04:32:55;;;;;;;20.80;13.43;;;;;;;;;;5041040;28;20032;-87
2021/12/09 04:35:21;;;;;;;23.65;14.43;;;;;;;;;;5058478;28;20052;-89
2021/12/09 04:37:48;;;;;;;24.75;13.73;;;;;;;;;;5040663;28;20071;-89
2021/12/09 04:40:15;;;;;;;23.88;13.75;;;;;;;;;;5041027;28;20036;-88
2021/12/09 04:42:41;;;;;;;30.92;15.60;;;;;;;;;;5058170;28;20149;-89
2021/12/09 04:45:08;;;;;;;26.00;14.82;;;;;;;;;;5058691;28;20037;-90
2021/12/09 04:47:35;;;;;;;29.45;15.80;;;;;;;;;;5040965;28;20052;-88
2021/12/09 04:50:01;;;;;;;36.90;19.35;;;;;;;;;;5040766;28;20032;-89
2021/12/09 04:52:27;;;;;;;24.33;13.95;;;;;;;;;;5040760;28;20422;-89
2021/12/09 04:54:53;;;;;;;23.48;14.10;;;;;;;;;;5041038;28;20079;-88
2021/12/09 04:57:19;;;;;;;24.25;14.07;;;;;;;;;;5040158;28;20339;-90
2021/12/09 04:59:47;;;;;;;23.92;14.00;;;;;;;;;;5058541;28;20064;-88
2021/12/09 05:02:25;;;;;;;24.92;15.02;;;;;;;;;;5058768;28;20029;-88
2021/12/09 05:04:51;;;;;;;23.38;14.77;;;;;;;;;;5040466;28;20020;-89
2021/12/09 05:07:17;;;;;;;23.92;13.85;;;;;;;;;;5058246;28;20097;-90
2021/12/09 05:09:50;;;;;;;21.88;13.15;;;;;;;;;;5040417;28;20025;-89
2021/12/09 05:12:16;;;;;;;22.45;13.73;;;;;;;;;;5058018;28;20033;-87
2021/12/09 05:14:47;;;;;;;24.27;14.48;;;;;;;;;;5057806;28;20017;-87
2021/12/09 05:17:50;;;;;;;20.92;12.82;;;;;;;;;;5040293;28;20460;-87
2021/12/09 05:20:16;;;;;;;;;;;;;;;;;;5040794;28;20021;-87
2021/12/09 05:22:43;;;;;;;22.38;12.60;;;;;;;;;;5040161;28;20345;-87
2021/12/09 05:25:09;;;;;;;25.13;12.55;;;;;;;;;;5057911;28;20092;-87
2021/12/09 05:27:37;;;;;;;20.08;12.25;;;;;;;;;;5040118;28;20029;-87
2021/12/09 05:30:07;;;;;;;18.90;11.38;;;;;;;;;;5057954;28;20025;-88
2021/12/09 05:32:33;;;;;;;19.35;11.88;;;;;;;;;;5040142;28;20115;-88
2021/12/09 05:34:59;;;;;;;20.83;11.70;;;;;;;;;;5057600;28;20095;-88
2021/12/09 05:37:26;;;;;;;17.98;10.75;;;;;;;;;;5057445;28;20021;-88
2021/12/09 05:39:53;;;;;;;20.90;11.98;;;;;;;;;;5057497;28;20036;-87
2021/12/09 05:42:21;;;;;;;15.93;10.85;;;;;;;;;;5057375;28;20052;-88
2021/12/09 05:44:47;;;;;;;19.02;11.30;;;;;;;;;;5039702;28;20029;-88
2021/12/09 05:47:13;;;;;;;24.52;12.68;;;;;;;;;;5057472;28;20399;-87
2021/12/09 05:49:42;;;;;;;20.92;12.35;;;;;;;;;;5056724;28;20032;-86
2021/12/09 05:52:08;;;;;;;19.55;11.80;;;;;;;;;;5057620;28;20359;-87
2021/12/09 05:54:35;;;;;;;23.65;11.98;;;;;;;;;;5039914;28;20021;-88
2021/12/09 05:57:01;;;;;;;24.25;12.32;;;;;;;;;;5039574;28;20029;-88
2021/12/09 05:59:27;;;;;;;27.02;13.07;;;;;;;;;;5057540;28;20112;-87
2021/12/09 06:01:54;;;;;;;21.33;11.60;;;;;;;;;;5057598;28;20036;-88
2021/12/09 06:04:21;;;;;;;25.17;13.90;;;;;;;;;;5057598;28;20033;-88
2021/12/09 06:06:47;;;;;;;53.30;21.52;;;;;;;;;;5057297;28;20366;-87
2021/12/09 06:09:14;;;;;;;29.95;12.70;;;;;;;;;;5039233;28;20033;-88
2021/12/09 06:11:41;;;;;;;20.50;11.20;;;;;;;;;;5039573;28;20033;-88
2021/12/09 06:14:07;;;;;;;19.67;11.65;;;;;;;;;;5052991;28;20021;-88
2021/12/09 06:16:34;;;;;;;18.50;11.07;;;;;;;;;;5020056;28;20064;-88
2021/12/09 06:19:01;;;;;;;19.75;11.85;;;;;;;;;;5037308;28;20407;-88
2021/12/09 06:21:27;;;;;;;18.50;11.77;;;;;;;;;;5019803;28;20021;-88
2021/12/09 06:23:55;;;;;;;21.42;12.13;;;;;;;;;;5037476;28;20121;-87
2021/12/09 06:26:22;;;;;;;22.23;11.35;;;;;;;;;;5019364;28;20043;-87
2021/12/09 06:28:48;;;;;;;16.88;10.30;;;;;;;;;;5036615;28;20021;-87
2021/12/09 06:31:14;;;;;;;19.17;10.50;;;;;;;;;;5036956;28;20077;-87
2021/12/09 06:33:40;;;;;;;21.92;11.35;;;;;;;;;;5037210;28;20026;-86
2021/12/09 06:36:06;;;;;;;27.02;11.90;;;;;;;;;;5041240;28;20021;-87
2021/12/09 06:38:32;;;;;;;20.80;11.75;;;;;;;;;;5036967;28;20034;-87
2021/12/09 06:40:59;;;;;;;21.73;11.82;;;;;;;;;;5037028;28;20029;-88
2021/12/09 06:43:25;;;;;;;16.65;10.15;;;;;;;;;;5053279;28;20052;-86
2021/12/09 06:45:53;;;;;;;35.63;11.23;;;;;;;;;;5056524;28;20025;-87
2021/12/09 06:48:20;;;;;;;21.83;10.02;;;;;;;;;;5056978;28;20025;-88
2021/12/09 06:50:46;;;;;;;17.40;10.10;;;;;;;;;;5056487;28;20360;-88
2021/12/09 06:53:14;;;;;;;17.00;10.48;;;;;;;;;;5057061;28;20021;-88
2021/12/09 06:55:40;;;;;;;17.98;9.95;;;;;;;;;;5057047;28;20024;-87
2021/12/09 06:58:06;;;;;;;17.30;10.88;;;;;;;;;;5056753;28;20025;-87
2021/12/09 07:00:33;;;;;;;16.75;10.85;;;;;;;;;;5059374;28;20021;-86
2021/12/09 07:03:38;;;;;;;15.48;9.82;;;;;;;;;;5060544;28;20431;-88
2021/12/09 07:06:06;;;;;;;19.65;11.10;;;;;;;;;;5058746;28;20025;-88
2021/12/09 07:08:41;;;;;;;18.33;10.77;;;;;;;;;;5080201;28;20032;-87
2021/12/09 07:11:07;;;;;;;21.90;11.32;;;;;;;;;;5080123;28;20460;-87
2021/12/09 07:13:33;;;;;;;24.40;11.70;;;;;;;;;;5079935;28;20036;-88
2021/12/09 07:16:00;;;;;;;19.17;10.02;;;;;;;;;;5080226;28;20123;-87
2021/12/09 07:18:26;;;;;;;18.23;9.70;;;;;;;;;;5080444;28;20031;-88
2021/12/09 07:20:53;;;;;;;20.40;10.43;;;;;;;;;;5080362;28;20025;-89
2021/12/09 07:23:19;;;;;;;22.05;10.00;;;;;;;;;;5079459;28;20086;-88
2021/12/09 07:25:45;;;;;;;14.90;9.00;;;;;;;;;;5062512;28;20055;-88
2021/12/09 07:28:12;;;;;;;22.38;8.95;;;;;;;;;;5079408;28;20309;-88
2021/12/09 07:30:38;;;;;;;19.25;9.15;;;;;;;;;;5080318;28;20020;-88
2021/12/09 07:33:04;;;;;;;16.33;9.20;;;;;;;;;;5078887;28;20025;-87
2021/12/09 07:35:31;;;;;;;16.25;9.07;;;;;;;;;;5079085;28;20024;-88
2021/12/09 07:38:01;;;;;;;21.75;10.35;;;;;;;;;;5060978;28;20027;-86
2021/12/09 07:40:27;;;;;;;18.27;10.90;;;;;;;;;;5079040;28;20082;-85
2021/12/09 07:42:53;;;;;;;24.05;12.93;;;;;;;;;;5078739;28;20354;-87
2021/12/09 07:45:20;;;;;;;23.38;11.82;;;;;;;;;;5062074;28;20048;-88
2021/12/09 07:47:46;;;;;;;22.98;11.15;;;;;;;;;;5079913;28;20039;-87
2021/12/09 07:50:14;;;;;;;21.35;11.90;;;;;;;;;;5080156;28;20082;-88
2021/12/09 07:52:44;;;;;;;23.52;13.52;;;;;;;;;;5079139;28;20047;-89
2021/12/09 07:55:11;;;;;;;21.23;12.50;;;;;;;;;;5078913;28;20111;-89
2021/12/09 07:57:38;;;;;;;17.52;11.30;;;;;;;;;;5079342;28;20483;-88
2021/12/09 08:00:06;;;;;;;16.83;10.55;;;;;;;;;;5077883;28;20319;-88
2021/12/09 08:02:32;;;;;;;15.00;9.43;;;;;;;;;;5061317;28;20087;-87
2021/12/09 08:04:58;;;;;;;14.25;8.18;;;;;;;;;;5079189;28;20024;-87
2021/12/09 08:07:24;;;;;;;15.30;9.52;;;;;;;;;;5078919;28;20035;-88
2021/12/09 08:09:51;;;;;;;15.52;9.75;;;;;;;;;;5079571;28;20029;-88
2021/12/09 08:12:18;;;;;;;20.20;11.57;;;;;;;;;;5060745;28;20055;-88
2021/12/09 08:14:44;;;;;;;36.95;15.88;;;;;;;;;;5078650;28;20028;-88
2021/12/09 08:23:18;;;;;;;20.23;11.30;;;;;;;;;;5069860;28;20027;-88
2021/12/09 08:25:45;;;;;;;21.65;11.32;;;;;;;;;;5079136;28;20049;-88
2021/12/09 08:28:11;;;;;;;19.42;11.20;;;;;;;;;;5061245;28;20027;-87
2021/12/09 08:30:38;;;;;;;17.02;11.23;;;;;;;;;;5078575;28;20039;-87
2021/12/09 08:33:06;;;;;;;21.05;11.48;;;;;;;;;;5078689;28;20086;-87
2021/12/09 08:35:33;;;;;;;19.15;11.43;;;;;;;;;;5078279;28;20024;-88
2021/12/09 08:37:59;;;;;;;17.85;10.80;;;;;;;;;;5060878;28;20037;-89
2021/12/09 08:40:25;;;;;;;24.60;12.57;;;;;;;;;;5078898;28;20029;-88
2021/12/09 08:42:51;;;;;;;30.85;16.55;;;;;;;;;;5078251;28;20072;-89
2021/12/09 08:45:18;;;;;;;19.92;11.90;;;;;;;;;;5078514;28;20399;-91
2021/12/09 08:47:44;;;;;;;25.05;14.20;;;;;;;;;;5078665;28;20024;-90
2021/12/09 08:50:11;;;;;;;23.02;11.60;;;;;;;;;;5060324;28;20036;-89
2021/12/09 08:52:38;;;;;;;19.13;11.43;;;;;;;;;;5078070;28;20052;-89
2021/12/09 08:55:04;;;;;;;19.63;11.43;;;;;;;;;;5078528;28;20048;-89
2021/12/09 08:57:36;;;;;;;22.90;11.82;;;;;;;;;;5060712;28;20071;-89
2021/12/09 09:00:03;;;;;;;20.90;11.77;;;;;;;;;;5078472;28;20028;-87
2021/12/09 09:05:33;;;;;;;20.73;11.65;;;;;;;;;;5078355;28;20456;-87
2021/12/09 09:08:00;;;;;;;22.25;13.23;;;;;;;;;;5060273;28;20074;-87
2021/12/09 09:10:28;;;;;;;21.88;12.30;;;;;;;;;;5077102;28;20040;-88
2021/12/09 09:12:54;;;;;;;23.55;13.55;;;;;;;;;;5070694;28;20013;-88
2021/12/09 09:15:21;;;;;;;23.88;12.30;;;;;;;;;;5058212;28;20327;-89
2021/12/09 09:20:51;;;;;;;22.50;12.63;;;;;;;;;;5078170;28;20077;-90
2021/12/09 09:23:19;;;;;;;24.58;14.65;;;;;;;;;;5077727;28;20020;-89
2021/12/09 09:25:45;;;;;;;19.35;11.40;;;;;;;;;;5078129;28;20304;-86
2021/12/09 09:28:11;;;;;;;24.17;13.45;;;;;;;;;;5060084;28;20040;-87
2021/12/09 09:30:39;;;;;;;23.00;12.65;;;;;;;;;;5077529;28;20051;-86
2021/12/09 09:33:43;;;;;;;20.67;11.43;;;;;;;;;;5059555;28;20025;-88
2021/12/09 09:36:09;;;;;;;21.60;12.27;;;;;;;;;;5060005;28;20032;-88
2021/12/09 09:38:35;;;;;;;25.35;13.25;;;;;;;;;;5077620;28;20032;-88
2021/12/09 09:41:09;;;;;;;23.20;12.93;;;;;;;;;;5077736;28;20048;-90
2021/12/09 09:46:13;;;;;;;22.17;11.60;;;;;;;;;;5057736;28;20404;-86
2021/12/09 09:48:39;;;;;;;19.95;11.15;;;;;;;;;;5047404;28;20036;-90
2021/12/09 09:51:06;;;;;;;21.38;11.25;;;;;;;;;;5077230;28;20031;-91
2021/12/09 09:53:33;;;;;;;20.23;11.52;;;;;;;;;;5060036;28;20043;-88
2021/12/09 09:56:00;;;;;;;24.23;12.75;;;;;;;;;;5058963;28;20456;-87
2021/12/09 09:58:26;;;;;;;21.58;12.25;;;;;;;;;;5077694;28;20098;-86
2021/12/09 10:00:52;;;;;;;25.50;11.15;;;;;;;;;;5059699;28;20337;-89
2021/12/09 10:03:19;;;;;;;27.77;12.68;;;;;;;;;;5077281;28;20402;-89
2021/12/09 10:05:46;;;;;;;35.75;14.65;;;;;;;;;;5077530;28;20033;-89
2021/12/09 10:08:13;;;;;;;28.45;14.02;;;;;;;;;;5077490;28;20032;-88
2021/12/09 10:10:40;;;;;;;32.67;15.32;;;;;;;;;;5059272;28;20039;-89
2021/12/09 10:13:07;;;;;;;34.75;15.30;;;;;;;;;;5059284;28;20038;-90
2021/12/09 10:15:39;;;;;;;36.78;17.20;;;;;;;;;;5059610;28;20028;-88
2021/12/09 10:18:43;;;;;;;37.83;17.53;;;;;;;;;;5077061;28;20104;-92
2021/12/09 10:21:11;;;;;;;28.75;14.88;;;;;;;;;;5070119;28;20257;-92
2021/12/09 10:23:44;;;;;;;28.02;14.20;;;;;;;;;;5077045;28;20415;-92
2021/12/09 10:26:15;;;;;;;36.83;19.15;;;;;;;;;;5059961;28;20063;-91
2021/12/09 10:28:45;;;;;;;30.92;15.98;;;;;;;;;;5059635;28;20481;-91
2021/12/09 10:31:14;;;;;;;30.42;14.05;;;;;;;;;;5077220;28;20036;-91
2021/12/09 10:36:48;;;;;;;27.17;13.63;;;;;;;;;;5081406;28;20159;-90
2021/12/09 10:39:16;;;;;;;18.38;10.55;;;;;;;;;;5080589;28;20419;-90
2021/12/09 10:41:42;;;;;;;19.08;11.40;;;;;;;;;;5080798;28;20044;-90
2021/12/09 10:44:08;;;;;;;21.98;12.20;;;;;;;;;;5080774;28;20021;-90
2021/12/09 10:46:53;;;;;;;17.98;11.38;;;;;;;;;;5080851;28;20033;-90
2021/12/09 10:49:20;;;;;;;21.30;11.77;;;;;;;;;;5080779;28;20029;-90
2021/12/09 10:51:57;;;;;;;19.60;10.43;;;;;;;;;;5062679;28;20063;-90
2021/12/09 10:54:41;;;;;;;46.67;24.20;;;;;;;;;;5043234;28;20446;-89
2021/12/09 10:57:33;;;;;;;70.38;43.90;;;;;;;;;;5060230;28;20017;-90
2021/12/09 11:00:16;;;;;;;182.00;96.93;;;;;;;;;;5057753;28;20099;-90
2021/12/09 11:02:42;;;;;;;;;;;;;;;;;;5043189;28;20132;-89
2021/12/09 11:05:08;;;;;;;527.88;205.23;;;;;;;;;;5060633;28;19932;-89
2021/12/09 11:07:34;;;;;;;173.32;58.67;;;;;;;;;;5060261;28;20029;-89
2021/12/09 11:10:19;;;;;;;140.88;50.53;;;;;;;;;;5060182;28;20412;-87
2021/12/09 11:12:52;;;;;;;164.27;63.45;;;;;;;;;;5042523;28;20039;-89
2021/12/09 11:15:20;;;;;;;213.63;89.70;;;;;;;;;;5060273;28;20024;-90
2021/12/09 11:17:48;;;;;;;620.88;295.88;;;;;;;;;;5059887;28;20025;-90
2021/12/09 11:20:14;;;;;;;1512.90;690.80;;;;;;;;;;5042683;28;20045;-90
2021/12/09 11:22:44;;;;;;;839.67;411.95;;;;;;;;;;5042117;28;20036;-89
2021/12/09 11:25:34;;;;;;;1999.90;964.90;;;;;;;;;;5042543;28;20082;-90
2021/12/09 11:28:10;;;;;;;1127.43;566.08;;;;;;;;;;5060012;28;20040;-90
2021/12/09 11:30:59;;;;;;;83.57;42.78;;;;;;;;;;5059887;28;20021;-90
2021/12/09 11:33:33;;;;;;;85.50;45.10;;;;;;;;;;5059756;28;20044;-90
2021/12/09 11:36:01;;;;;;;136.65;72.05;;;;;;;;;;5042231;28;20025;-90
2021/12/09 11:38:55;;;;;;;239.43;138.85;;;;;;;;;;5041840;28;20059;-89
2021/12/09 11:41:33;;;;;;;111.18;57.00;;;;;;;;;;5058589;28;20079;-89
2021/12/09 11:43:59;;;;;;;115.28;59.78;;;;;;;;;;5059686;28;20025;-90
2021/12/09 11:46:26;;;;;;;154.68;79.70;;;;;;;;;;5058160;28;20331;-90
2021/12/09 11:48:52;;;;;;;73.57;41.95;;;;;;;;;;5059678;28;20037;-90
2021/12/09 11:51:18;;;;;;;70.82;40.13;;;;;;;;;;5059149;28;20032;-89
2021/12/09 11:53:45;;;;;;;112.60;55.40;;;;;;;;;;5041932;28;20019;-90
2021/12/09 12:06:35;;;;;;;79.90;37.15;;;;;;;;;;5017999;28;20130;-89
2021/12/09 12:11:15;;;;;;;587.92;269.25;;;;;;;;;;5017762;28;20057;-89
2021/12/09 12:13:52;;;;;;;242.60;97.95;;;;;;;;;;5017821;28;20018;-89
2021/12/09 12:16:28;;;;;;;391.70;169.45;;;;;;;;;;5017783;28;20040;-89
2021/12/09 12:19:02;;;;;;;212.48;83.32;;;;;;;;;;5017661;28;20100;-89
2021/12/09 12:37:52;;;;;;;115.00;52.08;;;;;;;;;;5017327;28;20033;-89
2021/12/09 12:40:22;;;;;;;82.93;30.53;;;;;;;;;;5017327;28;20046;-89
2021/12/09 12:42:58;;;;;;;1336.13;621.50;;;;;;;;;;5017195;28;20606;-90
2021/12/09 12:48:16;;;;;;;350.97;122.73;;;;;;;;;;5017333;28;20032;-90
2021/12/09 12:51:01;;;;;;;409.75;147.73;;;;;;;;;;5016894;28;20248;-89
2021/12/09 12:53:38;;;;;;;403.00;155.27;;;;;;;;;;5000440;28;20029;-93
2021/12/09 12:56:16;;;;;;;972.05;453.75;;;;;;;;;;5000763;28;20101;-88
2021/12/09 12:59:01;;;;;;;278.88;118.68;;;;;;;;;;5016591;28;20037;-88
2021/12/09 13:01:27;;;;;;;128.98;60.33;;;;;;;;;;5017059;28;20033;-89
2021/12/09 13:03:57;;;;;;;139.52;63.65;;;;;;;;;;5016801;28;20052;-90
2021/12/09 13:06:41;;;;;;;278.20;134.30;;;;;;;;;;5016735;28;20045;-89
2021/12/09 13:09:36;;;;;;;199.70;89.20;;;;;;;;;;5016800;28;20041;-88
2021/12/09 13:12:07;;;;;;;142.77;57.03;;;;;;;;;;5049489;28;20490;-87
2021/12/09 13:14:36;;;;;;;65.07;28.48;;;;;;;;;;5040356;28;20021;-87
2021/12/09 13:17:15;;;;;;;255.35;110.20;;;;;;;;;;5057879;28;20132;-88
2021/12/09 13:20:07;;;;;;;92.28;39.35;;;;;;;;;;5057800;28;20032;-88
2021/12/09 13:22:39;;;;;;;143.25;65.32;;;;;;;;;;5057700;28;20029;-86
2021/12/09 13:25:08;;;;;;;;;;;;;;;;;;5040845;28;20051;-88
2021/12/09 13:45:51;;;;;;;36.42;18.08;;;;;;;;;;5057751;28;20032;-87
2021/12/09 13:46:29;;;;;;;50.47;21.05;;;;;;;;;;5057946;28;20079;-87
2021/12/09 13:48:59;;;;;;;27.88;14.60;;;;;;;;;;5039739;28;20033;-86
2021/12/09 13:56:45;;;;;;;33.53;18.08;;;;;;;;;;5057491;28;20029;-88
2021/12/09 13:59:18;;;;;;;23.73;13.30;;;;;;;;;;5057345;28;20021;-87
2021/12/09 14:01:45;;;;;;;34.45;17.75;;;;;;;;;;5057309;28;20416;-88
2021/12/09 14:04:12;;;;;;;28.17;14.60;;;;;;;;;;5039859;28;20116;-88
2021/12/09 14:07:08;;;;;;;41.42;19.50;;;;;;;;;;5057461;28;20040;-87
2021/12/09 14:09:34;;;;;;;44.60;21.42;;;;;;;;;;5058289;28;20491;-87
2021/12/09 14:12:03;;;;;;;79.13;39.30;;;;;;;;;;5061286;28;20032;-87
2021/12/09 14:14:40;;;;;;;49.70;24.88;;;;;;;;;;5043245;28;20407;-88
2021/12/09 14:17:11;;;;;;;52.83;18.38;;;;;;;;;;5061152;28;20025;-87
2021/12/09 14:22:29;;;;;;;30.40;16.63;;;;;;;;;;5078059;28;20468;-85
2021/12/09 14:24:56;;;;;;;42.30;20.67;;;;;;;;;;5075594;28;20037;-86
2021/12/09 14:27:22;;;;;;;37.05;20.33;;;;;;;;;;5080840;28;20460;-86
2021/12/09 14:29:50;;;;;;;33.33;19.05;;;;;;;;;;5062883;28;20043;-85
2021/12/09 14:32:16;;;;;;;33.72;17.90;;;;;;;;;;5063284;28;20024;-86
2021/12/09 14:37:48;;;;;;;31.92;20.27;;;;;;;;;;5066045;28;20116;-85
2021/12/09 14:40:18;;;;;;;41.35;20.55;;;;;;;;;;5043836;28;20029;-85
2021/12/09 14:42:53;;;;;;;33.95;18.63;;;;;;;;;;5043020;28;20451;-85
2021/12/09 14:45:22;;;;;;;55.47;25.77;;;;;;;;;;5060708;28;20044;-85
2021/12/09 14:47:59;;;;;;;132.10;48.75;;;;;;;;;;5060566;28;20017;-85
2021/12/09 14:50:31;;;;;;;172.23;81.57;;;;;;;;;;5043028;28;20025;-85
2021/12/09 14:52:58;;;;;;;131.30;70.95;;;;;;;;;;5042989;28;20040;-84
2021/12/09 14:55:29;;;;;;;104.80;54.53;;;;;;;;;;5060465;28;20033;-85
2021/12/09 14:58:10;;;;;;;58.33;31.60;;;;;;;;;;5060192;28;20438;-84
2021/12/09 15:00:36;;;;;;;63.55;36.55;;;;;;;;;;5060372;28;20064;-84
2021/12/09 15:03:03;;;;;;;76.32;40.28;;;;;;;;;;5060446;28;20033;-84
2021/12/09 15:05:32;;;;;;;81.07;45.20;;;;;;;;;;5042624;28;20024;-84
2021/12/09 15:08:04;;;;;;;81.47;39.40;;;;;;;;;;5060133;28;20036;-85
2021/12/09 15:10:32;;;;;;;65.03;34.78;;;;;;;;;;5060301;28;20029;-86
2021/12/09 15:12:59;;;;;;;66.25;31.88;;;;;;;;;;5060247;28;20037;-85
2021/12/09 15:15:27;;;;;;;100.57;47.13;;;;;;;;;;5059978;28;20025;-85
2021/12/09 15:18:01;;;;;;;200.85;78.05;;;;;;;;;;5059936;28;20017;-85
2021/12/09 15:20:38;;;;;;;187.07;71.57;;;;;;;;;;5042164;28;20021;-85
2021/12/09 15:25:35;;;;;;;326.95;152.65;;;;;;;;;;5059980;28;20053;-84
2021/12/09 15:28:05;;;;;;;368.77;164.07;;;;;;;;;;5059715;28;20494;-85
2021/12/09 15:30:39;;;;;;;238.40;118.95;;;;;;;;;;5059657;28;20449;-84
2021/12/09 15:33:06;;;;;;;161.82;86.30;;;;;;;;;;5059888;28;20346;-85
2021/12/09 15:35:33;;;;;;;136.35;70.15;;;;;;;;;;5059746;28;20027;-85
2021/12/09 15:38:00;;;;;;;104.97;54.03;;;;;;;;;;5059512;28;20039;-85
2021/12/09 15:40:26;;;;;;;76.20;40.15;;;;;;;;;;5059584;28;20403;-84
2021/12/09 15:42:52;;;;;;;71.85;39.45;;;;;;;;;;5059417;28;20045;-84
2021/12/09 15:45:22;;;;;;;83.00;44.45;;;;;;;;;;5059689;28;20056;-84
2021/12/09 15:47:50;;;;;;;80.03;43.30;;;;;;;;;;5059611;28;20103;-85
2021/12/09 15:50:27;;;;;;;98.65;53.10;;;;;;;;;;5059409;28;20033;-85
2021/12/09 15:52:55;;;;;;;101.68;52.83;;;;;;;;;;5041488;28;20438;-84
2021/12/09 15:55:23;;;;;;;87.15;48.63;;;;;;;;;;5059119;28;20032;-84
2021/12/09 15:57:51;;;;;;;104.38;50.13;;;;;;;;;;5059060;28;20063;-85
2021/12/09 16:00:23;;;;;;;130.82;59.65;;;;;;;;;;5059087;28;20400;-85
2021/12/09 16:02:49;;;;;;;179.85;74.60;;;;;;;;;;5059221;28;20104;-85
2021/12/09 16:05:17;;;;;;;145.15;62.97;;;;;;;;;;5041147;28;20342;-85